George Mason, Virginia
Current Conditions -  °F | °C
As of 7:52 PM on Tuesday 21 Oct 2014 (Local Time) from KDCA Reporting Station
Light Rain Light Rain  
Wind Chill: 59°   Ceiling: 5500
Heat Index: 59°   Visibility: 10mi
Dew Point: 51°   Wind: 7mph
Humidity: 75%   Direction: 350°N
Pressure: 29.89"   Gusts: NA
Location:  38.8059°N, 77.057°W
Report Text: KDCA 212352Z 35006KT 10SM -RA FEW048 BKN055 OVC070 15/11 A2989 RMK AO2 RAE21B51 SLP121 P0001 60003 T01500106 10228 20150 53021
Loading
Personal Weather Stations






























Interactive Weather Map
Tropical Storm Tracking
New forecast layout! Learn more

10-Day Weather Forecast

Advertisements
Track Severe Weather on mobile